Terminal Aerodrome Forecast
Issued by NWS

Home | Current Version | Previous Version | Graphics & Text | Print | Product List | Glossary On
Versions: 1 2 3 4 5 6 7 8 9 10 11 12 13 14 15
180
FTUS43 KMPX 271736
TAFRNH
TAF
KRNH 271736Z 2718/2818 02005KT P6SM SCT020 BKN035 BKN090
     FM280100 04004KT P6SM SCT150
     FM281000 07004KT 1SM BR FEW100
     FM281400 08005KT P6SM FEW200=

USA.gov is the U.S. government's official web portal to all federal, state and local government web resources and services.